Time;durP1;ratioP1;P1;durP2;ratioP2;P2;SDS_P1;SDS_P2;PMS_P1;PMS_P2;Temp;Humidity;BMP_temperature;BMP_pressure;BME280_temperature;BME280_humidity;BME280_pressure;Samples;Min_cycle;Max_cycle;Signal;HPM_P1;HPM_P2
2023/12/16 00:00:01;;;;;;;1.27;1.10;;;;;;;-144.30;100.00;86834.00;5116931;28;20198;-59
2023/12/16 00:02:28;;;;;;;2.17;1.80;;;;;;;-144.30;100.00;86838.00;5117024;28;20219;-55
2023/12/16 00:04:56;;;;;;;1.23;1.13;;;;;;;-144.30;100.00;86849.91;5116589;28;20657;-54
2023/12/16 00:07:23;;;;;;;1.30;1.10;;;;;;;-144.30;100.00;86853.91;5117065;28;20199;-59
2023/12/16 00:09:50;;;;;;;2.50;1.07;;;;;;;-144.30;100.00;86889.69;5116932;28;20751;-58
2023/12/16 00:12:18;;;;;;;0.80;0.80;;;;;;;-144.30;100.00;86845.94;5116643;28;20205;-58
2023/12/16 00:14:45;;;;;;;0.90;0.90;;;;;;;-144.30;100.00;86875.78;5116579;28;20206;-60
2023/12/16 00:17:13;;;;;;;0.90;0.70;;;;;;;-144.30;100.00;86887.72;5116732;28;20194;-59
2023/12/16 00:19:40;;;;;;;0.93;0.93;;;;;;;-144.30;100.00;86869.81;5116395;28;20202;-59
2023/12/16 00:22:08;;;;;;;1.10;1.00;;;;;;;-144.30;100.00;86869.81;5117011;28;20216;-59
2023/12/16 00:24:35;;;;;;;1.20;1.07;;;;;;;-144.30;100.00;86887.72;5116789;28;20253;-59
2023/12/16 00:27:02;;;;;;;1.00;1.00;;;;;;;-144.30;100.00;86871.81;5116567;28;20228;-54
2023/12/16 00:29:29;;;;;;;1.57;1.30;;;;;;;-144.30;100.00;86893.69;5116717;28;20237;-53
2023/12/16 00:31:56;;;;;;;1.93;1.00;;;;;;;-144.30;100.00;87018.97;5116747;28;20206;-54
2023/12/16 00:34:23;;;;;;;1.27;1.10;;;;;;;-144.30;100.00;86895.66;5116376;28;20197;-54
2023/12/16 00:36:50;;;;;;;1.40;1.30;;;;;;;-144.30;100.00;86871.81;5116186;27;20201;-58
2023/12/16 00:39:18;;;;;;;1.60;1.50;;;;;;;-144.30;100.00;87074.66;5116558;27;20630;-54
2023/12/16 00:41:45;;;;;;;1.93;1.40;;;;;;;-144.30;100.00;86887.72;5116143;28;20666;-55
2023/12/16 00:44:12;;;;;;;1.70;1.60;;;;;;;-144.30;100.00;86887.72;5116451;28;20197;-58
2023/12/16 00:46:39;;;;;;;2.07;1.60;;;;;;;-144.30;100.00;86903.63;5116001;27;20214;-60
2023/12/16 00:49:06;;;;;;;1.70;1.53;;;;;;;-144.30;100.00;86883.72;5116532;27;20206;-54
2023/12/16 00:51:33;;;;;;;1.80;1.70;;;;;;;-144.30;100.00;86883.72;5116553;27;20285;-59
2023/12/16 00:54:00;;;;;;;2.13;1.70;;;;;;;-144.30;100.00;86859.88;5116084;27;20210;-59
2023/12/16 00:56:28;;;;;;;2.00;1.80;;;;;;;-144.30;100.00;86832.03;5116393;27;20207;-54
2023/12/16 00:58:56;;;;;;;2.20;2.10;;;;;;;-144.30;100.00;86897.66;5116061;27;20206;-54
2023/12/16 01:01:24;;;;;;;1.63;1.53;;;;;;;-144.30;100.00;86901.63;5116175;27;20584;-54
2023/12/16 01:03:51;;;;;;;1.23;1.17;;;;;;;-144.30;100.00;86893.69;5116410;27;20204;-54
2023/12/16 01:06:18;;;;;;;2.10;1.90;;;;;;;-144.30;100.00;86877.75;5116192;27;20217;-54
2023/12/16 01:08:44;;;;;;;2.07;1.80;;;;;;;-144.30;100.00;86903.63;5112534;27;20204;-59
2023/12/16 01:11:12;;;;;;;2.03;1.50;;;;;;;-144.30;100.00;86859.88;5113075;28;20190;-60
2023/12/16 01:13:41;;;;;;;1.90;1.70;;;;;;;-144.30;100.00;86853.91;5112879;28;20205;-59
2023/12/16 01:16:08;;;;;;;1.67;1.57;;;;;;;-144.30;100.00;86861.84;5112988;28;20706;-54
2023/12/16 01:18:35;;;;;;;2.50;2.30;;;;;;;-144.30;100.00;86849.91;5113454;28;20709;-59
2023/12/16 01:21:05;;;;;;;2.43;1.90;;;;;;;-144.30;100.00;86865.84;5112747;28;20236;-54
2023/12/16 01:23:32;;;;;;;2.50;2.30;;;;;;;-144.30;100.00;86851.91;5112758;27;20206;-59
2023/12/16 01:25:59;;;;;;;2.53;2.33;;;;;;;-144.30;100.00;86722.66;5112339;28;20249;-58
2023/12/16 01:28:26;;;;;;;3.43;2.77;;;;;;;-144.30;100.00;86867.81;5112713;28;20230;-58
2023/12/16 01:30:54;;;;;;;2.03;1.93;;;;;;;-144.30;100.00;86873.78;5112408;28;20194;-54
2023/12/16 01:33:21;;;;;;;2.20;2.00;;;;;;;-144.30;100.00;86867.81;5112614;28;20292;-58
2023/12/16 01:35:48;;;;;;;2.30;2.10;;;;;;;-144.30;100.00;86855.88;5112461;28;20586;-59
2023/12/16 01:38:16;;;;;;;2.13;2.03;;;;;;;-144.30;100.00;86883.72;5112548;28;20659;-58
2023/12/16 01:40:43;;;;;;;2.30;2.10;;;;;;;-144.30;100.00;86897.66;5112228;28;20243;-59
2023/12/16 01:43:10;;;;;;;2.17;1.97;;;;;;;-144.30;100.00;86857.88;5112383;28;20259;-59
2023/12/16 01:45:37;;;;;;;2.33;2.13;;;;;;;-144.30;100.00;86925.50;5112320;28;20230;-58
2023/12/16 01:48:07;;;;;;;2.63;2.37;;;;;;;-144.30;100.00;86879.75;5112275;28;20289;-60
2023/12/16 01:50:34;;;;;;;2.00;1.90;;;;;;;-144.30;100.00;86899.66;5111037;28;20692;-57
2023/12/16 01:53:04;;;;;;;3.30;2.60;;;;;;;-144.30;100.00;86863.84;5112183;28;20194;-59
2023/12/16 01:55:32;;;;;;;3.77;3.47;;;;;;;-144.30;100.00;86839.97;5112099;28;20213;-59
2023/12/16 01:58:00;;;;;;;3.50;3.20;;;;;;;-144.30;100.00;86855.88;5111917;28;20199;-55
2023/12/16 02:00:29;;;;;;;3.47;2.97;;;;;;;-144.30;100.00;86917.53;5112214;28;20225;-54
2023/12/16 02:02:56;;;;;;;2.87;2.67;;;;;;;-144.30;100.00;86881.75;5111723;28;20206;-55
2023/12/16 02:05:25;;;;;;;3.07;2.83;;;;;;;-144.30;100.00;86843.97;5111840;28;20281;-55
2023/12/16 02:07:52;;;;;;;3.37;2.93;;;;;;;-144.30;100.00;86879.75;5111899;28;20579;-59
2023/12/16 02:10:19;;;;;;;4.07;3.67;;;;;;;-144.30;100.00;86917.53;5111718;28;20332;-59
2023/12/16 02:12:46;;;;;;;4.50;4.10;;;;;;;-144.30;100.00;86877.75;5111601;28;20232;-59
2023/12/16 02:15:13;;;;;;;4.10;3.80;;;;;;;-144.30;100.00;86871.81;5111656;28;20198;-59
2023/12/16 02:17:39;;;;;;;4.60;4.00;;;;;;;-144.30;100.00;86887.72;5111907;28;20245;-54
2023/12/16 02:20:08;;;;;;;3.90;3.60;;;;;;;-144.30;100.00;86877.75;5111711;28;20259;-55
2023/12/16 02:22:36;;;;;;;4.07;3.63;;;;;;;-144.30;100.00;86849.91;5111728;28;20284;-55
2023/12/16 02:25:05;;;;;;;3.60;3.30;;;;;;;-144.30;100.00;86879.75;5111328;28;20197;-55
2023/12/16 02:27:32;;;;;;;5.03;4.20;;;;;;;-144.30;100.00;86883.72;5111659;28;20225;-55
2023/12/16 02:30:00;;;;;;;5.77;4.23;;;;;;;-144.30;100.00;86879.75;5111487;28;20202;-55
2023/12/16 02:32:26;;;;;;;5.57;4.77;;;;;;;-144.30;100.00;86901.63;5111592;28;20248;-54
2023/12/16 02:34:53;;;;;;;4.63;4.13;;;;;;;-144.30;100.00;86839.97;5111224;28;20283;-55
2023/12/16 02:37:20;;;;;;;5.00;4.50;;;;;;;-144.30;100.00;86875.78;5111612;28;20204;-55
2023/12/16 02:39:47;;;;;;;6.00;4.70;;;;;;;-144.30;100.00;86867.81;5111353;28;20700;-55
2023/12/16 02:42:15;;;;;;;4.97;4.43;;;;;;;-144.30;100.00;86881.75;5111340;28;20237;-59
2023/12/16 02:44:42;;;;;;;6.57;5.23;;;;;;;-144.30;100.00;86816.13;5111359;28;20580;-55
2023/12/16 02:47:09;;;;;;;5.03;4.23;;;;;;;-144.30;100.00;86843.97;5111048;28;20221;-55
2023/12/16 02:49:36;;;;;;;4.53;4.07;;;;;;;-144.30;100.00;86847.94;5111122;28;20206;-54
2023/12/16 02:52:03;;;;;;;3.10;2.80;;;;;;;-144.30;100.00;86861.84;5111241;28;20202;-57
2023/12/16 02:54:30;;;;;;;2.37;2.17;;;;;;;-144.30;100.00;86849.91;5111030;28;20205;-59
2023/12/16 02:56:56;;;;;;;2.47;2.27;;;;;;;-144.30;100.00;86893.69;5110664;28;20213;-55
2023/12/16 02:59:24;;;;;;;2.60;2.40;;;;;;;-144.30;100.00;86851.91;5110874;28;20289;-54
2023/12/16 03:01:51;;;;;;;2.20;2.03;;;;;;;-144.30;100.00;86847.94;5110781;28;20642;-54
2023/12/16 03:04:18;;;;;;;2.07;1.97;;;;;;;-144.30;100.00;86879.75;5110657;28;20206;-58
2023/12/16 03:06:46;;;;;;;2.37;2.13;;;;;;;-144.30;100.00;86877.75;5110449;28;20228;-55
2023/12/16 03:09:13;;;;;;;2.73;2.53;;;;;;;-144.30;100.00;86895.66;5110925;28;20284;-53
2023/12/16 03:11:40;;;;;;;2.80;2.60;;;;;;;-144.30;100.00;86851.91;5110780;28;20197;-55
2023/12/16 03:14:07;;;;;;;3.13;2.83;;;;;;;-144.30;100.00;86867.81;5110688;28;20309;-54
2023/12/16 03:16:35;;;;;;;2.90;2.60;;;;;;;-144.30;100.00;86905.59;5110600;27;20229;-53
2023/12/16 03:19:02;;;;;;;3.13;2.83;;;;;;;-144.30;100.00;86869.81;5110169;28;20286;-54
2023/12/16 03:21:30;;;;;;;2.20;2.10;;;;;;;-144.30;100.00;86867.81;5110395;28;20209;-54
2023/12/16 03:23:57;;;;;;;2.40;2.20;;;;;;;-144.30;100.00;86881.75;5110164;28;20205;-54
2023/12/16 03:26:25;;;;;;;2.80;2.60;;;;;;;-144.30;100.00;86879.75;5110399;28;20232;-54
2023/12/16 03:28:52;;;;;;;2.80;2.60;;;;;;;-144.30;100.00;86871.81;5110226;28;20198;-54
2023/12/16 03:31:19;;;;;;;2.97;2.67;;;;;;;-144.30;100.00;86875.78;5109660;28;20201;-55
2023/12/16 03:33:47;;;;;;;2.83;2.63;;;;;;;-144.30;100.00;86843.97;5110187;28;20204;-58
2023/12/16 03:36:14;;;;;;;2.30;2.17;;;;;;;-144.30;100.00;86865.84;5110250;28;20190;-53
2023/12/16 03:38:41;;;;;;;3.03;2.77;;;;;;;-144.30;100.00;86871.81;5110062;28;20263;-54
2023/12/16 03:41:08;;;;;;;3.70;3.20;;;;;;;-144.30;100.00;86855.88;5110170;28;20233;-54
2023/12/16 03:43:35;;;;;;;2.50;2.30;;;;;;;-144.30;100.00;86847.94;5110588;28;20191;-54
2023/12/16 03:46:02;;;;;;;2.80;2.60;;;;;;;-144.30;100.00;86871.81;5109809;28;20689;-55
2023/12/16 03:48:29;;;;;;;2.33;2.13;;;;;;;-144.30;100.00;86869.81;5110098;28;20236;-54
2023/12/16 03:50:57;;;;;;;2.73;2.53;;;;;;;-144.30;100.00;86869.81;5110069;28;20221;-53
2023/12/16 03:53:24;;;;;;;2.40;2.20;;;;;;;-144.30;100.00;86887.72;5110087;28;20293;-55
2023/12/16 03:55:51;;;;;;;3.23;2.63;;;;;;;-144.30;100.00;86855.88;5109883;28;20199;-54
2023/12/16 03:58:19;;;;;;;2.87;2.40;;;;;;;-144.30;100.00;86849.91;5110195;28;20230;-55
2023/12/16 04:00:46;;;;;;;1.83;1.73;;;;;;;-144.30;100.00;86849.91;5109747;28;20252;-58
2023/12/16 04:03:13;;;;;;;2.37;2.10;;;;;;;-144.30;100.00;86859.88;5110212;28;20601;-59
2023/12/16 04:05:40;;;;;;;4.07;2.77;;;;;;;-144.30;100.00;86879.75;5110230;28;20219;-60
2023/12/16 04:08:08;;;;;;;2.80;2.60;;;;;;;-144.30;100.00;86869.81;5110044;28;20649;-60
2023/12/16 04:10:35;;;;;;;2.50;2.30;;;;;;;-144.30;100.00;86853.91;5109926;28;20308;-54
2023/12/16 04:13:03;;;;;;;3.23;2.80;;;;;;;-144.30;100.00;86836.00;5109691;28;20193;-58
2023/12/16 04:15:30;;;;;;;3.10;2.67;;;;;;;-144.30;100.00;86879.75;5109873;28;20201;-54
2023/12/16 04:17:57;;;;;;;3.17;2.87;;;;;;;-144.30;100.00;86851.91;5109932;28;20221;-54
2023/12/16 04:20:26;;;;;;;3.03;2.73;;;;;;;-144.30;100.00;86855.88;5110030;28;20197;-54
2023/12/16 04:22:52;;;;;;;3.37;3.07;;;;;;;-144.30;100.00;86847.94;5109860;28;20682;-54
2023/12/16 04:25:21;;;;;;;4.23;3.77;;;;;;;-144.30;100.00;86875.78;5109944;28;20208;-53
2023/12/16 04:27:48;;;;;;;3.60;3.30;;;;;;;-144.30;100.00;86883.72;5109637;28;20225;-58
2023/12/16 04:30:15;;;;;;;4.43;3.33;;;;;;;-144.30;100.00;86889.69;5109782;28;20201;-58
2023/12/16 04:32:41;;;;;;;4.17;3.33;;;;;;;-144.30;100.00;87009.03;5109905;28;20200;-54
2023/12/16 04:35:08;;;;;;;3.37;3.03;;;;;;;-144.30;100.00;86913.56;5109843;28;20732;-54
2023/12/16 04:37:35;;;;;;;4.43;3.23;;;;;;;-144.30;100.00;86877.75;5109590;28;20198;-54
2023/12/16 04:40:02;;;;;;;4.13;3.23;;;;;;;-144.30;100.00;86883.72;5104678;28;20214;-54
2023/12/16 04:42:30;;;;;;;3.60;3.27;;;;;;;-144.30;100.00;86883.72;5108980;28;20231;-53
2023/12/16 04:44:57;;;;;;;4.20;3.80;;;;;;;-144.30;100.00;86877.75;5113099;28;20285;-53
2023/12/16 04:47:24;;;;;;;4.10;3.70;;;;;;;-144.30;100.00;86849.91;5113233;28;20274;-53
2023/12/16 04:49:51;;;;;;;3.70;3.40;;;;;;;-144.30;100.00;86869.81;5123601;27;20201;-53
2023/12/16 04:52:18;;;;;;;3.70;3.37;;;;;;;-144.30;100.00;86883.72;5113327;28;20225;-53
2023/12/16 04:54:45;;;;;;;4.73;3.40;;;;;;;-144.30;100.00;86879.75;5112391;27;20193;-53
2023/12/16 04:57:13;;;;;;;4.17;3.80;;;;;;;-144.30;100.00;86915.56;5113400;28;20587;-59
2023/12/16 04:59:41;;;;;;;3.83;3.37;;;;;;;-144.30;100.00;86873.78;5113121;28;20199;-58
2023/12/16 05:02:08;;;;;;;3.77;3.47;;;;;;;-144.30;100.00;86919.53;5113303;28;20198;-59
2023/12/16 05:04:35;;;;;;;3.90;3.47;;;;;;;-144.30;100.00;86887.72;5113246;28;20592;-59
2023/12/16 05:07:02;;;;;;;4.30;3.90;;;;;;;-144.30;100.00;86899.66;5113195;28;20257;-56
2023/12/16 05:09:29;;;;;;;4.43;3.13;;;;;;;-144.30;100.00;86875.78;5112382;28;20201;-58
2023/12/16 05:11:56;;;;;;;4.47;3.80;;;;;;;-144.30;100.00;86917.53;5112872;28;20197;-58
2023/12/16 05:14:23;;;;;;;5.47;4.97;;;;;;;-144.30;100.00;86919.53;5112241;28;20495;-58
2023/12/16 05:16:51;;;;;;;5.60;5.00;;;;;;;-144.30;100.00;86901.63;5112835;28;20593;-59
2023/12/16 05:19:18;;;;;;;4.33;3.93;;;;;;;-144.30;100.00;86863.84;5112821;28;20223;-59
2023/12/16 05:21:45;;;;;;;4.23;3.83;;;;;;;-144.30;100.00;86891.69;5112382;28;20197;-59
2023/12/16 05:24:12;;;;;;;4.10;3.70;;;;;;;-144.30;100.00;86843.97;5112125;28;20655;-58
2023/12/16 05:26:38;;;;;;;4.03;3.70;;;;;;;-144.30;100.00;86883.72;5112669;28;20229;-58
2023/12/16 05:29:05;;;;;;;4.13;3.77;;;;;;;-144.30;100.00;86875.78;5112331;28;20257;-59
2023/12/16 05:31:32;;;;;;;4.37;3.63;;;;;;;-144.30;100.00;86887.72;5112583;28;20584;-59
2023/12/16 05:34:01;;;;;;;3.97;3.67;;;;;;;-144.30;100.00;87170.13;5112329;28;20233;-60
2023/12/16 05:36:28;;;;;;;5.13;4.63;;;;;;;-144.30;100.00;86865.84;5111968;28;20691;-59
2023/12/16 05:38:55;;;;;;;10.23;7.50;;;;;;;-144.30;100.00;86861.84;5111838;28;20199;-60
2023/12/16 05:41:22;;;;;;;6.77;5.53;;;;;;;-144.30;100.00;86899.66;5112368;28;20232;-59
2023/12/16 05:43:49;;;;;;;5.27;4.70;;;;;;;-144.30;100.00;86883.72;5112290;28;20201;-58
2023/12/16 05:46:17;;;;;;;4.40;4.00;;;;;;;-144.30;100.00;86836.00;5111151;28;20230;-58
2023/12/16 05:48:44;;;;;;;4.70;3.90;;;;;;;-144.30;100.00;86855.88;5111358;28;20739;-54
2023/12/16 05:51:12;;;;;;;4.20;3.80;;;;;;;-144.30;100.00;86909.59;5111970;28;20569;-59
2023/12/16 05:53:39;;;;;;;4.50;4.10;;;;;;;-144.30;100.00;86899.66;5110200;28;20614;-59
2023/12/16 05:56:07;;;;;;;5.17;4.67;;;;;;;-144.30;100.00;86889.69;5111325;28;20207;-54
2023/12/16 05:58:34;;;;;;;5.00;4.50;;;;;;;-144.30;100.00;86919.53;5112171;28;20296;-54
2023/12/16 06:01:02;;;;;;;5.00;4.43;;;;;;;-144.30;100.00;86895.66;5111903;28;20695;-55
2023/12/16 06:03:28;;;;;;;5.53;4.97;;;;;;;-144.30;100.00;86871.81;5112367;28;20650;-55
2023/12/16 06:05:55;;;;;;;6.27;5.07;;;;;;;-144.30;100.00;86885.72;5112061;28;20191;-59
2023/12/16 06:08:24;;;;;;;5.40;4.90;;;;;;;-144.30;100.00;86867.81;5111711;28;20225;-55
2023/12/16 06:10:51;;;;;;;5.37;4.87;;;;;;;-144.30;100.00;86903.63;5111664;28;20198;-55
2023/12/16 06:13:17;;;;;;;5.37;4.87;;;;;;;-144.30;100.00;86871.81;5111902;28;20249;-56
2023/12/16 06:15:44;;;;;;;5.77;5.13;;;;;;;-144.30;100.00;86873.78;5111366;28;20201;-59
2023/12/16 06:18:11;;;;;;;5.40;4.90;;;;;;;-144.30;100.00;86921.53;5112051;28;20635;-59
2023/12/16 06:20:39;;;;;;;5.67;5.10;;;;;;;-144.30;100.00;86879.75;5111711;28;20661;-59
2023/12/16 06:23:06;;;;;;;7.43;6.70;;;;;;;-144.30;100.00;86909.59;5111490;28;20195;-59
2023/12/16 06:25:34;;;;;;;10.40;7.37;;;;;;;-144.30;100.00;86889.69;5111297;28;20190;-59
2023/12/16 06:28:01;;;;;;;13.90;10.07;;;;;;;-144.30;100.00;86869.81;5111202;28;20680;-55
2023/12/16 06:30:28;;;;;;;18.03;11.93;;;;;;;-144.30;100.00;86875.78;5111680;28;20635;-59
2023/12/16 06:32:55;;;;;;;11.30;8.30;;;;;;;-144.30;100.00;86867.81;5111078;28;20287;-60
2023/12/16 06:35:22;;;;;;;10.07;8.13;;;;;;;-144.30;100.00;86867.81;5111458;28;20202;-56
2023/12/16 06:37:49;;;;;;;8.67;7.03;;;;;;;-144.30;100.00;86869.81;5111267;28;20193;-59
2023/12/16 06:40:17;;;;;;;8.37;6.50;;;;;;;-144.30;100.00;86877.75;5111180;28;20201;-57
2023/12/16 06:42:45;;;;;;;6.40;5.77;;;;;;;-144.30;100.00;86905.59;5111289;28;20285;-59
2023/12/16 06:45:12;;;;;;;7.77;6.90;;;;;;;-144.30;100.00;86875.78;5110276;28;20283;-58
2023/12/16 06:47:40;;;;;;;6.50;5.90;;;;;;;-144.30;100.00;86893.69;5110967;28;20227;-53
2023/12/16 06:50:09;;;;;;;6.27;5.43;;;;;;;-144.30;100.00;86891.69;5110798;28;20198;-59
2023/12/16 06:52:36;;;;;;;9.53;6.73;;;;;;;-144.30;100.00;86907.59;5110851;28;20197;-54
2023/12/16 06:55:03;;;;;;;7.73;6.93;;;;;;;-144.30;100.00;86869.81;5109823;28;20284;-59
2023/12/16 06:57:30;;;;;;;7.00;5.63;;;;;;;-144.30;100.00;86839.97;5105824;28;20202;-54
2023/12/16 06:59:58;;;;;;;9.60;6.30;;;;;;;-144.30;100.00;86867.81;5110533;28;20284;-59
2023/12/16 07:02:25;;;;;;;9.40;6.67;;;;;;;-144.30;100.00;86839.97;5110742;28;20596;-58
2023/12/16 07:04:52;;;;;;;6.07;5.57;;;;;;;-144.30;100.00;86883.72;5110489;28;20655;-55
2023/12/16 07:07:19;;;;;;;11.77;7.20;;;;;;;-144.30;100.00;86897.66;5121560;27;20673;-55
2023/12/16 07:09:46;;;;;;;10.93;6.97;;;;;;;-144.30;100.00;86911.56;5110436;28;20205;-60
2023/12/16 07:12:13;;;;;;;11.43;7.63;;;;;;;-144.30;100.00;86893.69;5108956;27;20197;-59
2023/12/16 07:14:41;;;;;;;7.63;6.20;;;;;;;-144.30;100.00;86897.66;5109918;28;20280;-58
2023/12/16 07:17:10;;;;;;;9.40;6.20;;;;;;;-144.30;100.00;86881.75;5110297;28;20688;-55
2023/12/16 07:19:37;;;;;;;8.60;6.60;;;;;;;-144.30;100.00;86861.84;5110649;28;20226;-59
2023/12/16 07:22:04;;;;;;;7.13;6.40;;;;;;;-144.30;100.00;86826.06;5110383;28;20255;-59
2023/12/16 07:24:31;;;;;;;8.00;6.07;;;;;;;-144.30;100.00;86893.69;5110704;28;20589;-59
2023/12/16 07:26:58;;;;;;;6.47;5.87;;;;;;;-144.30;100.00;86913.56;5109745;28;20204;-61
2023/12/16 07:29:25;;;;;;;7.77;5.93;;;;;;;-144.30;100.00;86847.94;5110241;28;20312;-55
2023/12/16 07:31:52;;;;;;;7.43;6.43;;;;;;;-144.30;100.00;86885.72;5110279;28;20198;-55
2023/12/16 07:34:20;;;;;;;7.33;5.70;;;;;;;-144.30;100.00;86879.75;5109957;28;20289;-54
2023/12/16 07:36:47;;;;;;;8.70;6.80;;;;;;;-144.30;100.00;86871.81;5109594;28;20244;-55
2023/12/16 07:39:15;;;;;;;6.97;5.13;;;;;;;-144.30;100.00;86859.88;5109910;28;20218;-60
2023/12/16 07:41:42;;;;;;;5.83;5.27;;;;;;;-144.30;100.00;86889.69;5109207;28;20225;-59
2023/12/16 07:44:09;;;;;;;5.53;5.03;;;;;;;-144.30;100.00;86871.81;5107332;28;20208;-54
2023/12/16 07:46:36;;;;;;;7.70;6.00;;;;;;;-144.30;100.00;86873.78;5109119;27;20236;-54
2023/12/16 07:49:02;;;;;;;7.40;5.70;;;;;;;-144.30;100.00;86871.81;5109247;28;20232;-54
2023/12/16 07:51:31;;;;;;;11.20;6.13;;;;;;;-144.30;100.00;86899.66;5109903;28;20746;-59
2023/12/16 07:53:58;;;;;;;11.13;6.83;;;;;;;-144.30;100.00;86873.78;5109530;28;20213;-55
2023/12/16 07:56:27;;;;;;;9.27;7.37;;;;;;;-144.30;100.00;86895.66;5109586;28;20294;-56
2023/12/16 07:58:54;;;;;;;12.23;7.90;;;;;;;-144.30;100.00;86913.56;5109344;28;20189;-60
2023/12/16 08:01:21;;;;;;;9.10;7.43;;;;;;;-144.30;100.00;86895.66;5109448;28;20205;-55
2023/12/16 08:03:49;;;;;;;8.47;6.50;;;;;;;-144.30;100.00;86877.75;5108364;28;20198;-54
2023/12/16 08:06:16;;;;;;;5.03;4.63;;;;;;;-144.30;100.00;86863.84;5109878;28;20208;-54
2023/12/16 08:08:46;;;;;;;7.17;5.53;;;;;;;-144.30;100.00;86871.81;5109552;28;20265;-55
2023/12/16 08:11:13;;;;;;;7.50;5.93;;;;;;;-144.30;100.00;86889.69;5110126;28;20576;-55
2023/12/16 08:13:40;;;;;;;6.97;6.10;;;;;;;-144.30;100.00;86867.81;5110013;28;20225;-55
2023/12/16 08:16:09;;;;;;;4.60;4.20;;;;;;;-144.30;100.00;86857.88;5109840;28;20202;-55
2023/12/16 08:18:36;;;;;;;6.63;4.13;;;;;;;-144.30;100.00;86836.00;5113541;28;20198;-54
2023/12/16 08:21:04;;;;;;;6.87;4.40;;;;;;;-144.30;100.00;86875.78;5113933;28;20204;-55
2023/12/16 08:23:31;;;;;;;4.70;4.10;;;;;;;-144.30;100.00;86883.72;5114157;28;20199;-55
2023/12/16 08:25:59;;;;;;;6.87;4.67;;;;;;;-144.30;100.00;86879.75;5113893;28;20230;-55
2023/12/16 08:28:26;;;;;;;7.27;6.10;;;;;;;-144.30;100.00;86838.00;5113866;28;20264;-55
2023/12/16 08:30:53;;;;;;;9.87;7.33;;;;;;;-144.30;100.00;86889.69;5113689;28;20236;-55
2023/12/16 08:33:20;;;;;;;11.97;8.07;;;;;;;-144.30;100.00;86820.09;5113769;28;20301;-54
2023/12/16 08:35:47;;;;;;;11.50;8.13;;;;;;;-144.30;100.00;86828.03;5113155;28;20903;-54
2023/12/16 08:38:14;;;;;;;13.73;8.50;;;;;;;-144.30;100.00;86861.84;5113752;28;20189;-59
2023/12/16 08:40:41;;;;;;;12.53;8.53;;;;;;;-144.30;100.00;86871.81;5113617;28;20237;-59
2023/12/16 08:43:09;;;;;;;17.70;11.57;;;;;;;-144.30;100.00;86887.72;5113825;28;20198;-56
2023/12/16 08:45:36;;;;;;;16.77;10.00;;;;;;;-144.30;100.00;86832.03;5112606;28;20191;-59
2023/12/16 08:48:04;;;;;;;12.73;9.33;;;;;;;-144.30;100.00;86839.97;5113243;28;20814;-58
2023/12/16 08:50:31;;;;;;;13.80;9.97;;;;;;;-144.30;100.00;86836.00;5113611;28;20277;-59
2023/12/16 08:52:58;;;;;;;17.10;10.97;;;;;;;-144.30;100.00;86847.94;5112822;28;20199;-60
2023/12/16 08:55:26;;;;;;;13.17;9.70;;;;;;;-144.30;100.00;86875.78;5113418;28;20195;-59
2023/12/16 08:57:53;;;;;;;12.43;8.50;;;;;;;-144.30;100.00;86883.72;5113188;28;20195;-60
2023/12/16 09:00:22;;;;;;;14.93;10.63;;;;;;;-144.30;100.00;86722.66;5113304;28;20205;-60
2023/12/16 09:02:48;;;;;;;20.33;11.87;;;;;;;-144.30;100.00;86857.88;5113235;28;20190;-60
2023/12/16 09:05:19;;;;;;;17.43;10.47;;;;;;;-144.30;100.00;86899.66;5113512;28;20763;-60
2023/12/16 09:07:45;;;;;;;18.77;11.27;;;;;;;-144.30;100.00;86847.94;5113232;28;20372;-59
2023/12/16 09:10:14;;;;;;;15.67;9.43;;;;;;;-144.30;100.00;86881.75;5113057;28;20682;-60
2023/12/16 09:12:40;;;;;;;14.33;8.67;;;;;;;-144.30;100.00;86889.69;5111633;28;20187;-59
2023/12/16 09:15:08;;;;;;;11.60;8.47;;;;;;;-144.30;100.00;86873.78;5111628;28;20202;-60
2023/12/16 09:17:37;;;;;;;10.37;7.67;;;;;;;-144.30;100.00;86861.84;5112333;28;20202;-61
2023/12/16 09:20:05;;;;;;;10.93;7.63;;;;;;;-144.30;100.00;86877.75;5112584;28;20270;-55
2023/12/16 09:22:32;;;;;;;12.20;9.23;;;;;;;-144.30;100.00;86851.91;5107872;28;20202;-60
2023/12/16 09:25:00;;;;;;;14.77;11.00;;;;;;;-144.30;100.00;86867.81;5112392;28;20209;-54
2023/12/16 09:27:27;;;;;;;12.27;9.90;;;;;;;-144.30;100.00;86816.13;5112576;28;20198;-54
2023/12/16 09:29:54;;;;;;;18.57;13.37;;;;;;;-144.30;100.00;86863.84;5111140;28;20301;-55
2023/12/16 09:32:21;;;;;;;18.53;13.53;;;;;;;-144.30;100.00;86893.69;5111532;27;20601;-55
2023/12/16 09:34:50;;;;;;;17.57;11.90;;;;;;;-144.30;100.00;86871.81;5111635;28;20197;-55
2023/12/16 09:37:17;;;;;;;16.90;11.63;;;;;;;-144.30;100.00;86764.41;5109430;28;20561;-54
2023/12/16 09:39:43;;;;;;;13.80;10.83;;;;;;;-144.30;100.00;86796.22;5110595;28;20234;-58
2023/12/16 09:42:13;;;;;;;15.53;10.80;;;;;;;-144.30;100.00;86857.88;5103901;28;20772;-54
2023/12/16 09:44:42;;;;;;;14.30;10.20;;;;;;;-144.30;100.00;86794.25;5112634;28;20246;-55
2023/12/16 09:47:11;;;;;;;15.30;10.60;;;;;;;-144.30;100.00;86768.38;5112028;27;20209;-59
2023/12/16 09:49:40;;;;;;;16.97;11.27;;;;;;;-144.30;100.00;86859.88;5112700;28;20214;-61
2023/12/16 09:52:09;;;;;;;14.37;10.80;;;;;;;-144.30;100.00;86871.81;5112575;28;20276;-58
2023/12/16 09:54:38;;;;;;;20.33;13.07;;;;;;;-144.30;100.00;86883.72;5112649;28;20194;-59
2023/12/16 09:57:07;;;;;;;19.73;12.70;;;;;;;-144.30;100.00;86877.75;5112475;28;20627;-59
2023/12/16 09:59:36;;;;;;;22.90;13.13;;;;;;;-144.30;100.00;86855.88;5112258;28;20699;-55
2023/12/16 10:02:05;;;;;;;20.07;12.27;;;;;;;-144.30;100.00;86871.81;5111698;28;20199;-55
2023/12/16 10:04:33;;;;;;;16.77;12.17;;;;;;;-144.30;100.00;86855.88;5112136;28;20698;-55
2023/12/16 10:07:00;;;;;;;20.17;13.10;;;;;;;-144.30;100.00;86818.09;5111758;28;20199;-60
2023/12/16 10:09:28;;;;;;;18.43;11.80;;;;;;;-144.30;100.00;86861.84;5111787;28;20219;-60
2023/12/16 10:11:59;;;;;;;21.27;12.27;;;;;;;-144.30;100.00;86873.78;5111728;28;20237;-60
2023/12/16 10:14:26;;;;;;;18.13;11.57;;;;;;;-144.30;100.00;86857.88;5111864;28;20197;-55
2023/12/16 10:17:02;;;;;;;17.30;11.33;;;;;;;-144.30;100.00;86885.72;5111751;28;20194;-60
2023/12/16 10:19:29;;;;;;;20.07;12.27;;;;;;;-144.30;100.00;86828.03;5111666;28;20202;-60
2023/12/16 10:21:56;;;;;;;18.47;11.97;;;;;;;-144.30;100.00;86859.88;5111420;28;20195;-58
2023/12/16 10:24:23;;;;;;;17.47;11.37;;;;;;;-144.30;100.00;86871.81;5112025;28;20637;-59
2023/12/16 10:26:52;;;;;;;28.50;13.87;;;;;;;-144.30;100.00;86863.84;5111666;28;20712;-60
2023/12/16 10:29:20;;;;;;;24.33;12.27;;;;;;;-144.30;100.00;86808.16;5111635;28;20675;-60
2023/12/16 10:31:47;;;;;;;21.77;12.67;;;;;;;-144.30;100.00;86853.91;5111419;28;20198;-55
2023/12/16 10:34:17;;;;;;;19.00;11.43;;;;;;;-144.30;100.00;86836.00;5111442;28;20582;-58
2023/12/16 10:36:43;;;;;;;19.87;11.43;;;;;;;-144.30;100.00;86830.03;5111392;28;20234;-59
2023/12/16 10:39:10;;;;;;;18.37;11.70;;;;;;;-144.30;100.00;86849.91;5111275;28;20603;-59
2023/12/16 10:41:37;;;;;;;21.03;13.13;;;;;;;-144.30;100.00;86832.03;5110370;28;20226;-59
2023/12/16 10:44:06;;;;;;;16.20;10.53;;;;;;;-144.30;100.00;86863.84;5104678;28;20232;-59
2023/12/16 10:46:36;;;;;;;16.23;10.70;;;;;;;-144.30;100.00;86851.91;5110800;28;20712;-58
2023/12/16 10:49:06;;;;;;;18.73;12.20;;;;;;;-144.30;100.00;86877.75;5107687;28;20238;-56
2023/12/16 10:51:36;;;;;;;16.80;10.67;;;;;;;-144.30;100.00;86828.03;5110330;28;20227;-56
2023/12/16 10:54:06;;;;;;;16.77;10.50;;;;;;;-144.30;100.00;86849.91;5110725;28;20326;-58
2023/12/16 10:56:38;;;;;;;14.77;9.50;;;;;;;-144.30;100.00;86849.91;5110820;28;20204;-54
2023/12/16 10:59:15;;;;;;;14.03;8.97;;;;;;;-144.30;100.00;86869.81;5110209;28;20225;-58
2023/12/16 11:01:46;;;;;;;12.90;8.90;;;;;;;-144.30;100.00;86843.97;5110321;28;20255;-59
2023/12/16 11:04:15;;;;;;;14.53;10.00;;;;;;;-144.30;100.00;86861.84;5108086;28;20194;-59
2023/12/16 11:06:50;;;;;;;19.17;10.57;;;;;;;-144.30;100.00;86897.66;5110525;28;20198;-59